sensor_id;sensor_type;location;lat;lon;timestamp;P1;durP1;ratioP1;P2;durP2;ratioP2
75912;SDS011;64592;52.168;21.040;2023-03-23T00:01:30;29.95;;;16.25;;
75912;SDS011;64592;52.168;21.040;2023-03-23T00:06:36;27.10;;;16.48;;
75912;SDS011;64592;52.168;21.040;2023-03-23T00:11:38;32.35;;;16.00;;
75912;SDS011;64592;52.168;21.040;2023-03-23T00:16:41;30.85;;;17.17;;
75912;SDS011;64592;52.168;21.040;2023-03-23T00:21:45;33.53;;;17.05;;
75912;SDS011;64592;52.168;21.040;2023-03-23T00:26:48;32.85;;;17.77;;
75912;SDS011;64592;52.168;21.040;2023-03-23T00:31:52;27.67;;;16.38;;
75912;SDS011;64592;52.168;21.040;2023-03-23T00:36:56;32.35;;;16.33;;
75912;SDS011;64592;52.168;21.040;2023-03-23T00:41:58;30.08;;;15.73;;
75912;SDS011;64592;52.168;21.040;2023-03-23T00:47:02;29.52;;;16.52;;
75912;SDS011;64592;52.168;21.040;2023-03-23T00:52:04;31.08;;;16.67;;
75912;SDS011;64592;52.168;21.040;2023-03-23T00:57:07;28.95;;;15.70;;
75912;SDS011;64592;52.168;21.040;2023-03-23T01:02:11;29.55;;;16.17;;
75912;SDS011;64592;52.168;21.040;2023-03-23T01:07:13;29.58;;;15.52;;
75912;SDS011;64592;52.168;21.040;2023-03-23T01:12:18;28.58;;;16.02;;
75912;SDS011;64592;52.168;21.040;2023-03-23T01:17:21;32.83;;;18.55;;
75912;SDS011;64592;52.168;21.040;2023-03-23T01:22:22;34.67;;;16.85;;
75912;SDS011;64592;52.168;21.040;2023-03-23T01:27:25;31.08;;;16.88;;
75912;SDS011;64592;52.168;21.040;2023-03-23T01:32:28;28.13;;;15.43;;
75912;SDS011;64592;52.168;21.040;2023-03-23T01:37:30;28.38;;;17.02;;
75912;SDS011;64592;52.168;21.040;2023-03-23T01:42:33;30.73;;;17.33;;
75912;SDS011;64592;52.168;21.040;2023-03-23T01:47:37;33.70;;;16.70;;
75912;SDS011;64592;52.168;21.040;2023-03-23T01:52:39;32.45;;;16.63;;
75912;SDS011;64592;52.168;21.040;2023-03-23T01:57:41;30.67;;;16.52;;
75912;SDS011;64592;52.168;21.040;2023-03-23T02:02:45;29.77;;;16.40;;
75912;SDS011;64592;52.168;21.040;2023-03-23T02:12:52;29.33;;;16.67;;
75912;SDS011;64592;52.168;21.040;2023-03-23T02:17:57;32.15;;;17.65;;
75912;SDS011;64592;52.168;21.040;2023-03-23T02:23:10;29.23;;;15.48;;
75912;SDS011;64592;52.168;21.040;2023-03-23T02:28:27;26.88;;;15.05;;
75912;SDS011;64592;52.168;21.040;2023-03-23T02:33:47;29.23;;;17.35;;
75912;SDS011;64592;52.168;21.040;2023-03-23T02:38:56;26.40;;;15.35;;
75912;SDS011;64592;52.168;21.040;2023-03-23T02:44:02;24.80;;;14.88;;
75912;SDS011;64592;52.168;21.040;2023-03-23T02:49:08;27.20;;;14.60;;
75912;SDS011;64592;52.168;21.040;2023-03-23T02:54:14;29.15;;;14.68;;
75912;SDS011;64592;52.168;21.040;2023-03-23T02:59:18;29.65;;;15.23;;
75912;SDS011;64592;52.168;21.040;2023-03-23T03:04:22;24.95;;;14.73;;
75912;SDS011;64592;52.168;21.040;2023-03-23T03:09:28;29.35;;;15.00;;
75912;SDS011;64592;52.168;21.040;2023-03-23T03:14:37;30.88;;;14.25;;
75912;SDS011;64592;52.168;21.040;2023-03-23T03:19:45;32.90;;;15.40;;
75912;SDS011;64592;52.168;21.040;2023-03-23T03:24:50;24.17;;;12.80;;
75912;SDS011;64592;52.168;21.040;2023-03-23T03:29:56;27.30;;;15.95;;
75912;SDS011;64592;52.168;21.040;2023-03-23T03:35:02;27.10;;;15.13;;
75912;SDS011;64592;52.168;21.040;2023-03-23T03:40:07;23.48;;;13.65;;
75912;SDS011;64592;52.168;21.040;2023-03-23T03:45:12;27.80;;;14.07;;
75912;SDS011;64592;52.168;21.040;2023-03-23T03:50:17;26.05;;;14.70;;
75912;SDS011;64592;52.168;21.040;2023-03-23T03:55:19;20.63;;;12.73;;
75912;SDS011;64592;52.168;21.040;2023-03-23T04:00:21;25.65;;;14.23;;
75912;SDS011;64592;52.168;21.040;2023-03-23T04:05:25;25.17;;;13.85;;
75912;SDS011;64592;52.168;21.040;2023-03-23T04:10:29;27.38;;;14.07;;
75912;SDS011;64592;52.168;21.040;2023-03-23T04:15:33;27.13;;;14.07;;
75912;SDS011;64592;52.168;21.040;2023-03-23T04:20:36;23.20;;;12.23;;
75912;SDS011;64592;52.168;21.040;2023-03-23T04:25:38;24.52;;;13.43;;
75912;SDS011;64592;52.168;21.040;2023-03-23T04:30:42;24.35;;;14.00;;
75912;SDS011;64592;52.168;21.040;2023-03-23T04:35:45;23.92;;;13.70;;
75912;SDS011;64592;52.168;21.040;2023-03-23T04:40:48;25.08;;;14.00;;
75912;SDS011;64592;52.168;21.040;2023-03-23T04:45:52;26.67;;;13.63;;
75912;SDS011;64592;52.168;21.040;2023-03-23T04:50:57;23.83;;;13.68;;
75912;SDS011;64592;52.168;21.040;2023-03-23T04:56:00;22.48;;;13.70;;
75912;SDS011;64592;52.168;21.040;2023-03-23T05:01:02;22.98;;;12.32;;
75912;SDS011;64592;52.168;21.040;2023-03-23T05:06:06;21.38;;;12.18;;
75912;SDS011;64592;52.168;21.040;2023-03-23T05:11:09;24.15;;;13.63;;
75912;SDS011;64592;52.168;21.040;2023-03-23T05:16:10;25.95;;;12.45;;
75912;SDS011;64592;52.168;21.040;2023-03-23T05:21:13;26.63;;;13.25;;
75912;SDS011;64592;52.168;21.040;2023-03-23T05:26:15;25.70;;;13.90;;
75912;SDS011;64592;52.168;21.040;2023-03-23T05:31:17;26.80;;;14.43;;
75912;SDS011;64592;52.168;21.040;2023-03-23T05:36:20;23.45;;;13.25;;
75912;SDS011;64592;52.168;21.040;2023-03-23T05:41:23;27.35;;;12.93;;
75912;SDS011;64592;52.168;21.040;2023-03-23T05:46:25;21.80;;;13.63;;
75912;SDS011;64592;52.168;21.040;2023-03-23T05:51:28;22.73;;;13.20;;
75912;SDS011;64592;52.168;21.040;2023-03-23T05:56:30;23.02;;;12.70;;
75912;SDS011;64592;52.168;21.040;2023-03-23T06:01:32;23.70;;;13.75;;
75912;SDS011;64592;52.168;21.040;2023-03-23T06:06:35;21.55;;;12.32;;
75912;SDS011;64592;52.168;21.040;2023-03-23T06:11:37;19.50;;;12.25;;
75912;SDS011;64592;52.168;21.040;2023-03-23T06:16:39;22.13;;;12.15;;
75912;SDS011;64592;52.168;21.040;2023-03-23T06:21:42;19.23;;;12.43;;
75912;SDS011;64592;52.168;21.040;2023-03-23T06:26:44;19.95;;;11.88;;
75912;SDS011;64592;52.168;21.040;2023-03-23T06:31:46;19.25;;;12.50;;
75912;SDS011;64592;52.168;21.040;2023-03-23T06:36:54;21.77;;;11.88;;
75912;SDS011;64592;52.168;21.040;2023-03-23T06:41:56;22.15;;;12.75;;
75912;SDS011;64592;52.168;21.040;2023-03-23T06:46:59;18.33;;;11.52;;
75912;SDS011;64592;52.168;21.040;2023-03-23T06:52:03;20.10;;;11.45;;
75912;SDS011;64592;52.168;21.040;2023-03-23T06:57:06;18.25;;;12.30;;
75912;SDS011;64592;52.168;21.040;2023-03-23T07:02:08;21.63;;;12.57;;
75912;SDS011;64592;52.168;21.040;2023-03-23T07:07:12;21.45;;;11.32;;
75912;SDS011;64592;52.168;21.040;2023-03-23T07:12:14;18.55;;;10.63;;
75912;SDS011;64592;52.168;21.040;2023-03-23T07:17:16;21.73;;;12.23;;
75912;SDS011;64592;52.168;21.040;2023-03-23T07:22:19;14.65;;;9.82;;
75912;SDS011;64592;52.168;21.040;2023-03-23T07:27:22;18.35;;;12.05;;
75912;SDS011;64592;52.168;21.040;2023-03-23T07:32:24;17.60;;;10.13;;
75912;SDS011;64592;52.168;21.040;2023-03-23T07:37:27;18.15;;;10.05;;
75912;SDS011;64592;52.168;21.040;2023-03-23T07:42:29;16.25;;;10.48;;
75912;SDS011;64592;52.168;21.040;2023-03-23T07:47:31;20.42;;;9.75;;
75912;SDS011;64592;52.168;21.040;2023-03-23T07:52:34;17.02;;;10.20;;
75912;SDS011;64592;52.168;21.040;2023-03-23T07:57:36;18.58;;;9.90;;
75912;SDS011;64592;52.168;21.040;2023-03-23T08:02:38;18.60;;;9.82;;
75912;SDS011;64592;52.168;21.040;2023-03-23T08:07:43;14.35;;;9.10;;
75912;SDS011;64592;52.168;21.040;2023-03-23T08:12:45;15.35;;;9.52;;
75912;SDS011;64592;52.168;21.040;2023-03-23T08:17:47;16.05;;;9.98;;
75912;SDS011;64592;52.168;21.040;2023-03-23T08:22:53;15.98;;;8.65;;
75912;SDS011;64592;52.168;21.040;2023-03-23T08:27:57;17.13;;;8.48;;
75912;SDS011;64592;52.168;21.040;2023-03-23T08:32:59;14.65;;;8.38;;
75912;SDS011;64592;52.168;21.040;2023-03-23T08:38:02;14.35;;;8.32;;
75912;SDS011;64592;52.168;21.040;2023-03-23T08:43:04;10.68;;;7.53;;
75912;SDS011;64592;52.168;21.040;2023-03-23T08:48:06;12.93;;;7.15;;
75912;SDS011;64592;52.168;21.040;2023-03-23T08:53:10;11.07;;;6.38;;
75912;SDS011;64592;52.168;21.040;2023-03-23T08:58:12;14.57;;;7.18;;
75912;SDS011;64592;52.168;21.040;2023-03-23T09:03:14;9.85;;;5.75;;
75912;SDS011;64592;52.168;21.040;2023-03-23T09:08:18;8.63;;;6.10;;
75912;SDS011;64592;52.168;21.040;2023-03-23T09:13:20;11.90;;;6.47;;
75912;SDS011;64592;52.168;21.040;2023-03-23T09:18:22;9.60;;;6.78;;
75912;SDS011;64592;52.168;21.040;2023-03-23T09:23:26;11.68;;;5.90;;
75912;SDS011;64592;52.168;21.040;2023-03-23T09:28:28;11.93;;;7.28;;
75912;SDS011;64592;52.168;21.040;2023-03-23T09:33:32;8.98;;;5.40;;
75912;SDS011;64592;52.168;21.040;2023-03-23T09:38:38;9.93;;;6.30;;
75912;SDS011;64592;52.168;21.040;2023-03-23T09:43:47;9.65;;;5.72;;
75912;SDS011;64592;52.168;21.040;2023-03-23T09:48:58;14.05;;;5.82;;
75912;SDS011;64592;52.168;21.040;2023-03-23T09:54:04;9.88;;;5.60;;
75912;SDS011;64592;52.168;21.040;2023-03-23T09:59:13;8.65;;;5.65;;
75912;SDS011;64592;52.168;21.040;2023-03-23T10:04:34;10.68;;;6.18;;
75912;SDS011;64592;52.168;21.040;2023-03-23T10:14:49;8.88;;;5.38;;
75912;SDS011;64592;52.168;21.040;2023-03-23T10:20:03;9.05;;;5.63;;
75912;SDS011;64592;52.168;21.040;2023-03-23T10:25:21;9.80;;;5.68;;
75912;SDS011;64592;52.168;21.040;2023-03-23T10:30:27;9.55;;;4.93;;
75912;SDS011;64592;52.168;21.040;2023-03-23T10:35:35;11.23;;;5.60;;
75912;SDS011;64592;52.168;21.040;2023-03-23T10:40:45;8.05;;;4.38;;
75912;SDS011;64592;52.168;21.040;2023-03-23T10:45:53;10.75;;;4.43;;
75912;SDS011;64592;52.168;21.040;2023-03-23T10:51:00;7.40;;;4.65;;
75912;SDS011;64592;52.168;21.040;2023-03-23T10:56:17;6.88;;;4.93;;
75912;SDS011;64592;52.168;21.040;2023-03-23T11:06:32;6.30;;;3.92;;
75912;SDS011;64592;52.168;21.040;2023-03-23T11:11:39;7.25;;;4.78;;
75912;SDS011;64592;52.168;21.040;2023-03-23T11:16:43;7.65;;;3.97;;
75912;SDS011;64592;52.168;21.040;2023-03-23T11:21:47;6.15;;;2.33;;
75912;SDS011;64592;52.168;21.040;2023-03-23T11:26:53;4.03;;;2.72;;
75912;SDS011;64592;52.168;21.040;2023-03-23T11:32:02;6.43;;;3.47;;
75912;SDS011;64592;52.168;21.040;2023-03-23T11:37:08;6.68;;;2.63;;
75912;SDS011;64592;52.168;21.040;2023-03-23T11:42:20;4.82;;;2.50;;
75912;SDS011;64592;52.168;21.040;2023-03-23T11:47:24;6.35;;;3.30;;
75912;SDS011;64592;52.168;21.040;2023-03-23T11:52:33;5.53;;;2.83;;
75912;SDS011;64592;52.168;21.040;2023-03-23T11:57:44;7.75;;;3.25;;
75912;SDS011;64592;52.168;21.040;2023-03-23T12:08:30;5.03;;;2.90;;
75912;SDS011;64592;52.168;21.040;2023-03-23T12:13:45;5.97;;;3.35;;
75912;SDS011;64592;52.168;21.040;2023-03-23T12:19:06;4.07;;;2.70;;
75912;SDS011;64592;52.168;21.040;2023-03-23T12:24:18;6.82;;;2.92;;
75912;SDS011;64592;52.168;21.040;2023-03-23T12:29:38;5.95;;;3.33;;
75912;SDS011;64592;52.168;21.040;2023-03-23T12:34:47;4.85;;;3.08;;
75912;SDS011;64592;52.168;21.040;2023-03-23T12:40:02;6.07;;;3.97;;
75912;SDS011;64592;52.168;21.040;2023-03-23T12:45:24;6.20;;;3.50;;
75912;SDS011;64592;52.168;21.040;2023-03-23T12:50:30;4.72;;;3.38;;
75912;SDS011;64592;52.168;21.040;2023-03-23T12:55:39;8.73;;;3.58;;
75912;SDS011;64592;52.168;21.040;2023-03-23T13:00:55;5.70;;;3.40;;
75912;SDS011;64592;52.168;21.040;2023-03-23T13:06:03;6.97;;;3.45;;
75912;SDS011;64592;52.168;21.040;2023-03-23T13:11:10;5.88;;;3.30;;
75912;SDS011;64592;52.168;21.040;2023-03-23T13:16:20;9.55;;;4.03;;
75912;SDS011;64592;52.168;21.040;2023-03-23T13:21:27;5.95;;;3.55;;
75912;SDS011;64592;52.168;21.040;2023-03-23T13:26:36;5.30;;;3.60;;
75912;SDS011;64592;52.168;21.040;2023-03-23T13:31:41;7.05;;;3.58;;
75912;SDS011;64592;52.168;21.040;2023-03-23T13:36:43;5.47;;;3.35;;
75912;SDS011;64592;52.168;21.040;2023-03-23T13:42:04;5.80;;;3.28;;
75912;SDS011;64592;52.168;21.040;2023-03-23T13:47:27;10.80;;;2.63;;
75912;SDS011;64592;52.168;21.040;2023-03-23T13:52:37;3.65;;;2.20;;
75912;SDS011;64592;52.168;21.040;2023-03-23T13:57:48;4.15;;;2.60;;
75912;SDS011;64592;52.168;21.040;2023-03-23T14:02:59;4.75;;;2.33;;
75912;SDS011;64592;52.168;21.040;2023-03-23T14:08:05;6.20;;;2.80;;
75912;SDS011;64592;52.168;21.040;2023-03-23T14:13:17;7.88;;;2.80;;
75912;SDS011;64592;52.168;21.040;2023-03-23T14:18:23;5.85;;;3.10;;
75912;SDS011;64592;52.168;21.040;2023-03-23T14:23:30;5.63;;;3.00;;
75912;SDS011;64592;52.168;21.040;2023-03-23T14:28:36;7.57;;;3.15;;
75912;SDS011;64592;52.168;21.040;2023-03-23T14:33:41;9.88;;;3.38;;
75912;SDS011;64592;52.168;21.040;2023-03-23T14:38:43;5.63;;;3.20;;
75912;SDS011;64592;52.168;21.040;2023-03-23T14:43:44;6.10;;;3.42;;
75912;SDS011;64592;52.168;21.040;2023-03-23T14:48:48;5.93;;;3.45;;
75912;SDS011;64592;52.168;21.040;2023-03-23T14:53:50;5.65;;;3.53;;
75912;SDS011;64592;52.168;21.040;2023-03-23T14:58:54;8.18;;;3.50;;
75912;SDS011;64592;52.168;21.040;2023-03-23T15:04:07;5.35;;;3.67;;
75912;SDS011;64592;52.168;21.040;2023-03-23T15:09:11;10.32;;;5.03;;
75912;SDS011;64592;52.168;21.040;2023-03-23T15:14:16;5.50;;;3.90;;
75912;SDS011;64592;52.168;21.040;2023-03-23T15:19:24;6.20;;;3.50;;
75912;SDS011;64592;52.168;21.040;2023-03-23T15:24:31;6.63;;;3.95;;
75912;SDS011;64592;52.168;21.040;2023-03-23T15:29:34;4.82;;;4.03;;
75912;SDS011;64592;52.168;21.040;2023-03-23T15:34:49;7.70;;;3.92;;
75912;SDS011;64592;52.168;21.040;2023-03-23T15:39:51;7.57;;;4.10;;
75912;SDS011;64592;52.168;21.040;2023-03-23T15:45:22;7.78;;;4.43;;
75912;SDS011;64592;52.168;21.040;2023-03-23T15:50:34;7.28;;;4.43;;
75912;SDS011;64592;52.168;21.040;2023-03-23T15:55:37;7.80;;;4.85;;
75912;SDS011;64592;52.168;21.040;2023-03-23T16:00:39;9.70;;;4.90;;
75912;SDS011;64592;52.168;21.040;2023-03-23T16:05:44;10.38;;;5.15;;
75912;SDS011;64592;52.168;21.040;2023-03-23T16:10:46;10.32;;;4.63;;
75912;SDS011;64592;52.168;21.040;2023-03-23T16:15:48;11.50;;;4.20;;
75912;SDS011;64592;52.168;21.040;2023-03-23T16:20:52;7.35;;;3.92;;
75912;SDS011;64592;52.168;21.040;2023-03-23T16:25:53;6.28;;;4.10;;
75912;SDS011;64592;52.168;21.040;2023-03-23T16:30:55;6.00;;;3.72;;
75912;SDS011;64592;52.168;21.040;2023-03-23T16:35:58;7.47;;;3.92;;
75912;SDS011;64592;52.168;21.040;2023-03-23T16:41:00;8.25;;;4.18;;
75912;SDS011;64592;52.168;21.040;2023-03-23T16:46:02;8.25;;;4.25;;
75912;SDS011;64592;52.168;21.040;2023-03-23T16:51:06;7.95;;;4.50;;
75912;SDS011;64592;52.168;21.040;2023-03-23T16:56:08;6.00;;;3.63;;
75912;SDS011;64592;52.168;21.040;2023-03-23T17:01:09;6.68;;;4.07;;
75912;SDS011;64592;52.168;21.040;2023-03-23T17:06:14;12.05;;;4.13;;
75912;SDS011;64592;52.168;21.040;2023-03-23T17:11:15;6.30;;;3.75;;
75912;SDS011;64592;52.168;21.040;2023-03-23T17:16:17;7.07;;;4.10;;
75912;SDS011;64592;52.168;21.040;2023-03-23T17:21:20;6.43;;;4.53;;
75912;SDS011;64592;52.168;21.040;2023-03-23T17:26:24;7.22;;;4.63;;
75912;SDS011;64592;52.168;21.040;2023-03-23T17:31:26;9.10;;;4.75;;
75912;SDS011;64592;52.168;21.040;2023-03-23T17:36:29;8.18;;;4.32;;
75912;SDS011;64592;52.168;21.040;2023-03-23T17:41:31;7.53;;;4.53;;
75912;SDS011;64592;52.168;21.040;2023-03-23T17:46:33;5.85;;;4.43;;
75912;SDS011;64592;52.168;21.040;2023-03-23T17:51:36;9.05;;;5.15;;
75912;SDS011;64592;52.168;21.040;2023-03-23T17:56:38;9.20;;;5.18;;
75912;SDS011;64592;52.168;21.040;2023-03-23T18:01:41;6.95;;;4.45;;
75912;SDS011;64592;52.168;21.040;2023-03-23T18:06:44;9.85;;;5.05;;
75912;SDS011;64592;52.168;21.040;2023-03-23T18:11:46;9.27;;;5.03;;
75912;SDS011;64592;52.168;21.040;2023-03-23T18:16:48;9.23;;;4.88;;
75912;SDS011;64592;52.168;21.040;2023-03-23T18:21:51;8.65;;;4.80;;
75912;SDS011;64592;52.168;21.040;2023-03-23T18:26:53;11.38;;;6.13;;
75912;SDS011;64592;52.168;21.040;2023-03-23T18:31:55;8.90;;;5.72;;
75912;SDS011;64592;52.168;21.040;2023-03-23T18:36:58;9.93;;;5.78;;
75912;SDS011;64592;52.168;21.040;2023-03-23T18:42:00;7.57;;;4.88;;
75912;SDS011;64592;52.168;21.040;2023-03-23T18:47:02;7.97;;;5.03;;
75912;SDS011;64592;52.168;21.040;2023-03-23T18:52:05;7.60;;;4.35;;
75912;SDS011;64592;52.168;21.040;2023-03-23T18:57:07;6.57;;;3.88;;
75912;SDS011;64592;52.168;21.040;2023-03-23T19:02:09;7.30;;;4.22;;
75912;SDS011;64592;52.168;21.040;2023-03-23T19:07:15;6.82;;;3.40;;
75912;SDS011;64592;52.168;21.040;2023-03-23T19:12:18;5.35;;;2.88;;
75912;SDS011;64592;52.168;21.040;2023-03-23T19:17:21;4.97;;;3.10;;
75912;SDS011;64592;52.168;21.040;2023-03-23T19:22:25;4.60;;;2.53;;
75912;SDS011;64592;52.168;21.040;2023-03-23T19:27:27;5.25;;;3.08;;
75912;SDS011;64592;52.168;21.040;2023-03-23T19:32:28;4.80;;;2.90;;
75912;SDS011;64592;52.168;21.040;2023-03-23T19:37:32;4.30;;;2.53;;
75912;SDS011;64592;52.168;21.040;2023-03-23T19:42:33;6.20;;;2.63;;
75912;SDS011;64592;52.168;21.040;2023-03-23T19:47:35;5.28;;;2.25;;
75912;SDS011;64592;52.168;21.040;2023-03-23T19:52:38;3.35;;;2.30;;
75912;SDS011;64592;52.168;21.040;2023-03-23T19:57:40;3.97;;;1.90;;
75912;SDS011;64592;52.168;21.040;2023-03-23T20:02:43;4.88;;;2.55;;
75912;SDS011;64592;52.168;21.040;2023-03-23T20:07:46;3.42;;;1.98;;
75912;SDS011;64592;52.168;21.040;2023-03-23T20:12:48;3.70;;;2.13;;
75912;SDS011;64592;52.168;21.040;2023-03-23T20:17:50;2.95;;;1.75;;
75912;SDS011;64592;52.168;21.040;2023-03-23T20:22:53;3.85;;;2.10;;
75912;SDS011;64592;52.168;21.040;2023-03-23T20:27:55;3.20;;;1.90;;
75912;SDS011;64592;52.168;21.040;2023-03-23T20:32:57;3.20;;;1.92;;
75912;SDS011;64592;52.168;21.040;2023-03-23T20:38:01;4.00;;;2.15;;
75912;SDS011;64592;52.168;21.040;2023-03-23T20:43:02;3.88;;;2.55;;
75912;SDS011;64592;52.168;21.040;2023-03-23T20:48:04;3.22;;;2.28;;
75912;SDS011;64592;52.168;21.040;2023-03-23T20:53:07;6.03;;;3.03;;
75912;SDS011;64592;52.168;21.040;2023-03-23T20:58:10;4.85;;;2.58;;
75912;SDS011;64592;52.168;21.040;2023-03-23T21:03:13;5.10;;;3.13;;
75912;SDS011;64592;52.168;21.040;2023-03-23T21:08:17;4.63;;;3.00;;
75912;SDS011;64592;52.168;21.040;2023-03-23T21:13:19;5.15;;;2.80;;
75912;SDS011;64592;52.168;21.040;2023-03-23T21:18:20;5.82;;;3.30;;
75912;SDS011;64592;52.168;21.040;2023-03-23T21:23:24;6.25;;;3.85;;
75912;SDS011;64592;52.168;21.040;2023-03-23T21:28:26;4.50;;;2.90;;
75912;SDS011;64592;52.168;21.040;2023-03-23T21:33:28;5.63;;;4.05;;
75912;SDS011;64592;52.168;21.040;2023-03-23T21:38:32;6.88;;;3.78;;
75912;SDS011;64592;52.168;21.040;2023-03-23T21:43:34;7.10;;;3.97;;
75912;SDS011;64592;52.168;21.040;2023-03-23T21:48:36;7.18;;;3.67;;
75912;SDS011;64592;52.168;21.040;2023-03-23T21:53:42;8.38;;;4.53;;
75912;SDS011;64592;52.168;21.040;2023-03-23T21:58:46;6.53;;;3.92;;
75912;SDS011;64592;52.168;21.040;2023-03-23T22:03:48;9.00;;;3.90;;
75912;SDS011;64592;52.168;21.040;2023-03-23T22:08:51;8.23;;;4.57;;
75912;SDS011;64592;52.168;21.040;2023-03-23T22:13:54;6.05;;;4.05;;
75912;SDS011;64592;52.168;21.040;2023-03-23T22:18:57;9.70;;;5.40;;
75912;SDS011;64592;52.168;21.040;2023-03-23T22:24:02;8.30;;;4.63;;
75912;SDS011;64592;52.168;21.040;2023-03-23T22:29:04;9.32;;;4.40;;
75912;SDS011;64592;52.168;21.040;2023-03-23T22:34:09;9.73;;;5.30;;
75912;SDS011;64592;52.168;21.040;2023-03-23T22:39:13;8.65;;;4.80;;
75912;SDS011;64592;52.168;21.040;2023-03-23T22:44:15;6.85;;;4.65;;
75912;SDS011;64592;52.168;21.040;2023-03-23T22:49:18;6.70;;;4.85;;
75912;SDS011;64592;52.168;21.040;2023-03-23T22:54:21;8.15;;;4.55;;
75912;SDS011;64592;52.168;21.040;2023-03-23T22:59:23;8.57;;;5.13;;
75912;SDS011;64592;52.168;21.040;2023-03-23T23:04:24;10.13;;;4.78;;
75912;SDS011;64592;52.168;21.040;2023-03-23T23:09:28;7.90;;;4.50;;
75912;SDS011;64592;52.168;21.040;2023-03-23T23:14:29;9.45;;;4.78;;
75912;SDS011;64592;52.168;21.040;2023-03-23T23:19:31;8.57;;;5.05;;
75912;SDS011;64592;52.168;21.040;2023-03-23T23:24:34;8.68;;;4.97;;
75912;SDS011;64592;52.168;21.040;2023-03-23T23:29:36;8.00;;;3.70;;
75912;SDS011;64592;52.168;21.040;2023-03-23T23:34:39;5.97;;;3.65;;
75912;SDS011;64592;52.168;21.040;2023-03-23T23:39:42;6.32;;;4.00;;
75912;SDS011;64592;52.168;21.040;2023-03-23T23:44:44;6.57;;;3.58;;
75912;SDS011;64592;52.168;21.040;2023-03-23T23:49:46;6.78;;;4.07;;
75912;SDS011;64592;52.168;21.040;2023-03-23T23:54:49;5.57;;;3.92;;
75912;SDS011;64592;52.168;21.040;2023-03-23T23:59:51;6.78;;;4.43;;
